メインページ
METAR-TAF:

METAR-TAF

空港 :

エスファハーン・シャヒード・ベヘシュティー国際空港

エスファハーン, イラン

緯度: 32-28N, 経度: 051-43E, 海抜: 1590m

現時点の気象観測

当レポートは34分前の06:00(UTC)に作成
の風 4kt
気温 14°C
湿度 24%
気圧 1024 hPa
視程: 9000m

METAR: OIFM 040600Z 01004KT 9000 NSC 14/M06 Q1023 A3023

時間: 11:04 (06:34 UTC)

予報

当レポートは1時間4分前の05:30(UTC)に作成
予報は04日の 06時(UTC)から 05日の 12時(UTC)まで有効
北/北東の風 8kt
視程: 7000m
高度3500ftの雲はほとんどない
04日の 09時(UTC)から 04日の 18時(UTC)まで一時的に
西/南西の風 14kt、最大28ktの突風を伴う
05日の 06時(UTC)から 05日の 12時(UTC)まで一時的に
西/北西の風 12kt、最大24ktの突風を伴う

TAF: OIFM 040530Z 0406/0512 03008KT 7000 FEW035 TEMPO 0409/0418 24014G28KT TEMPO 0506/0512 30012G24KT

4,000以上の空港の気象観測と天気予報(METAR報とTAF報)

利用可能な観測所は地図上に黄色い丸と赤い丸で示す。

丸の上にカーソルを重ねると観測所名を参照できる。

次にクリックすると気象観測と天気予報を参照できる。

マップの切り替え:黒色「×」印の緑ボタンをクリックして拡大、「-」印の緑ボタンをクリックして縮小、緑色の三角印をクリックして隣りの地図に切り替え


METAR-TAF: